Time;durP1;ratioP1;P1;durP2;ratioP2;P2;SDS_P1;SDS_P2;PMS_P1;PMS_P2;Temp;Humidity;BMP_temperature;BMP_pressure;BME280_temperature;BME280_humidity;BME280_pressure;Samples;Min_cycle;Max_cycle;Signal;HPM_P1;HPM_P2
2023/04/29 00:00:31;;;;;;;11.55;6.50;;;12.90;99.90;;;;;;4988051;28;20066;-75
2023/04/29 00:02:56;;;;;;;12.80;7.43;;;12.90;99.90;;;;;;4987913;28;20458;-74
2023/04/29 00:05:22;;;;;;;12.00;7.15;;;12.90;99.90;;;;;;4987316;28;20073;-77
2023/04/29 00:07:48;;;;;;;13.57;6.47;;;12.90;99.90;;;;;;4984948;28;20050;-75
2023/04/29 00:10:13;;;;;;;10.52;6.22;;;12.90;99.90;;;;;;4984565;28;20107;-76
2023/04/29 00:12:40;;;;;;;13.65;6.35;;;12.90;99.90;;;;;;4997631;28;20046;-75
2023/04/29 00:15:07;;;;;;;12.45;6.60;;;12.90;99.90;;;;;;4987334;28;20026;-74
2023/04/29 00:17:33;;;;;;;12.57;6.78;;;12.80;99.90;;;;;;4987380;28;20026;-75
2023/04/29 00:19:59;;;;;;;11.75;6.78;;;12.80;99.90;;;;;;4988006;28;20022;-73
2023/04/29 00:22:25;;;;;;;15.07;7.35;;;12.80;99.90;;;;;;4986311;28;20586;-74
2023/04/29 00:24:51;;;;;;;11.15;6.32;;;12.80;99.90;;;;;;4985918;28;20026;-75
2023/04/29 00:27:17;;;;;;;16.70;7.50;;;12.80;99.90;;;;;;4973187;28;20465;-76
2023/04/29 00:29:43;;;;;;;13.77;6.93;;;12.80;99.90;;;;;;4991721;28;20038;-75
2023/04/29 00:32:09;;;;;;;12.90;7.10;;;12.80;99.90;;;;;;4990761;28;20038;-75
2023/04/29 00:34:35;;;;;;;13.73;6.85;;;12.80;99.90;;;;;;4992359;28;20093;-77
2023/04/29 00:37:00;;;;;;;15.60;7.22;;;12.80;99.90;;;;;;4989378;28;20034;-75
2023/04/29 00:39:26;;;;;;;13.20;6.85;;;12.70;99.90;;;;;;4990675;28;20050;-75
2023/04/29 00:41:52;;;;;;;12.23;7.05;;;12.70;99.90;;;;;;4987770;28;20034;-75
2023/04/29 00:44:17;;;;;;;15.57;6.57;;;12.70;99.90;;;;;;4991429;28;20027;-75
2023/04/29 00:46:43;;;;;;;9.77;6.60;;;12.70;99.90;;;;;;4991506;28;20034;-74
2023/04/29 00:49:11;;;;;;;12.32;6.30;;;12.70;99.90;;;;;;4989645;28;20042;-74
2023/04/29 00:51:39;;;;;;;11.50;6.70;;;12.60;99.90;;;;;;5005259;28;20122;-75
2023/04/29 00:54:05;;;;;;;10.80;6.97;;;12.50;99.90;;;;;;4990747;28;20622;-75
2023/04/29 00:56:34;;;;;;;12.40;7.30;;;12.50;99.90;;;;;;4991130;28;20151;-76
2023/04/29 00:59:01;;;;;;;12.27;7.57;;;12.50;99.90;;;;;;4990022;28;20030;-76
2023/04/29 01:01:28;;;;;;;17.35;7.20;;;12.40;99.90;;;;;;4989199;28;20033;-75
2023/04/29 01:03:54;;;;;;;13.98;7.50;;;12.40;99.90;;;;;;4990545;28;20030;-77
2023/04/29 01:06:31;;;;;;;12.05;7.28;;;12.40;99.90;;;;;;4990092;28;20038;-75
2023/04/29 01:09:09;;;;;;;13.65;7.30;;;12.30;99.90;;;;;;4988452;28;20065;-74
2023/04/29 01:11:45;;;;;;;10.73;6.82;;;12.30;99.90;;;;;;4982962;28;20466;-74
2023/04/29 01:14:11;;;;;;;15.40;7.43;;;12.20;99.90;;;;;;4991227;28;20035;-74
2023/04/29 01:16:50;;;;;;;12.15;7.35;;;12.20;99.90;;;;;;4991486;28;20030;-75
2023/04/29 01:19:31;;;;;;;12.02;7.22;;;12.10;99.90;;;;;;4989542;28;20035;-74
2023/04/29 01:21:57;;;;;;;11.82;7.60;;;12.10;99.90;;;;;;4971324;28;20498;-76
2023/04/29 01:24:22;;;;;;;13.68;7.80;;;12.10;99.90;;;;;;4987626;28;20030;-75
2023/04/29 01:27:01;;;;;;;14.40;8.50;;;12.00;99.90;;;;;;4990777;28;20113;-75
2023/04/29 01:29:39;;;;;;;14.85;8.52;;;12.00;99.90;;;;;;4990629;28;20546;-75
2023/04/29 01:32:09;;;;;;;14.15;8.70;;;12.00;99.90;;;;;;4989865;28;20077;-75
2023/04/29 01:34:48;;;;;;;16.88;9.00;;;12.00;99.90;;;;;;4989133;28;20058;-76
2023/04/29 01:37:51;;;;;;;14.13;8.68;;;12.00;99.90;;;;;;4971499;28;20046;-75
2023/04/29 01:40:37;;;;;;;15.10;8.77;;;11.90;99.90;;;;;;4972794;28;20101;-76
2023/04/29 01:43:10;;;;;;;17.15;8.32;;;11.90;99.90;;;;;;4987714;28;20466;-76
2023/04/29 01:45:40;;;;;;;15.32;8.43;;;11.90;99.90;;;;;;4991158;28;20026;-77
2023/04/29 01:48:06;;;;;;;15.75;8.60;;;11.90;99.90;;;;;;4989634;28;20038;-77
2023/04/29 01:50:32;;;;;;;15.10;8.68;;;11.80;99.90;;;;;;4989305;28;20046;-76
2023/04/29 01:52:57;;;;;;;14.90;9.38;;;11.80;99.90;;;;;;4989867;28;20038;-76
2023/04/29 01:55:23;;;;;;;16.25;9.05;;;11.80;99.90;;;;;;4989425;28;20125;-76
2023/04/29 01:57:49;;;;;;;15.93;9.77;;;11.80;99.90;;;;;;4988957;28;20084;-76
2023/04/29 02:00:14;;;;;;;21.20;10.57;;;11.80;99.90;;;;;;4984380;28;20099;-75
2023/04/29 02:02:40;;;;;;;21.40;9.63;;;11.80;99.90;;;;;;4983752;28;20038;-76
2023/04/29 02:05:06;;;;;;;16.25;9.63;;;11.70;99.90;;;;;;4989977;28;20459;-76
2023/04/29 02:07:32;;;;;;;22.85;10.35;;;11.80;99.90;;;;;;4988003;28;20056;-75
2023/04/29 02:09:57;;;;;;;22.30;10.32;;;11.80;99.90;;;;;;4990034;28;20034;-74
2023/04/29 02:12:23;;;;;;;17.02;10.77;;;11.80;99.90;;;;;;4989518;28;20121;-77
2023/04/29 02:14:52;;;;;;;21.95;11.05;;;11.80;99.90;;;;;;4989470;28;20431;-77
2023/04/29 02:17:17;;;;;;;17.80;11.05;;;11.80;99.90;;;;;;4989235;28;20037;-75
2023/04/29 02:19:43;;;;;;;30.38;11.35;;;11.80;99.90;;;;;;4990427;28;20033;-76
2023/04/29 02:22:11;;;;;;;28.55;11.23;;;11.80;99.90;;;;;;4988519;28;20703;-76
2023/04/29 02:24:37;;;;;;;16.60;10.50;;;11.70;99.90;;;;;;4990129;28;20034;-77
2023/04/29 02:27:04;;;;;;;19.73;10.73;;;11.70;99.90;;;;;;4987994;28;20479;-75
2023/04/29 02:29:30;;;;;;;17.63;10.45;;;11.70;99.90;;;;;;4988703;28;20414;-77
2023/04/29 02:31:56;;;;;;;21.05;10.23;;;11.70;99.90;;;;;;4987071;28;20053;-75
2023/04/29 02:34:22;;;;;;;17.45;10.30;;;11.70;99.90;;;;;;4989695;28;20374;-75
2023/04/29 02:36:48;;;;;;;30.23;10.05;;;11.70;99.90;;;;;;4988800;28;20041;-75
2023/04/29 02:39:14;;;;;;;39.35;9.93;;;11.70;99.90;;;;;;4988575;28;20034;-75
2023/04/29 02:41:41;;;;;;;15.98;9.68;;;11.70;99.90;;;;;;4987466;28;20538;-77
2023/04/29 02:44:06;;;;;;;22.98;9.95;;;11.70;99.90;;;;;;4988511;28;20030;-75
2023/04/29 02:46:34;;;;;;;13.43;8.43;;;11.70;99.90;;;;;;4987421;28;20030;-76
2023/04/29 02:49:00;;;;;;;27.98;9.23;;;11.70;99.90;;;;;;4988534;28;20533;-75
2023/04/29 02:51:26;;;;;;;56.28;10.35;;;11.70;99.90;;;;;;4988538;28;20154;-75
2023/04/29 02:53:52;;;;;;;62.28;10.23;;;11.70;99.90;;;;;;4989072;28;20026;-76
2023/04/29 02:56:18;;;;;;;219.20;12.38;;;11.60;99.90;;;;;;4989744;28;20037;-75
2023/04/29 02:58:44;;;;;;;382.20;13.80;;;11.60;99.90;;;;;;4994833;28;20443;-77
2023/04/29 03:01:10;;;;;;;372.15;12.70;;;11.50;99.90;;;;;;4987445;28;20038;-75
2023/04/29 03:03:36;;;;;;;320.15;12.10;;;11.40;99.90;;;;;;4988980;28;20113;-76
2023/04/29 03:06:02;;;;;;;168.35;8.93;;;11.30;99.90;;;;;;4987646;28;20038;-76
2023/04/29 03:08:28;;;;;;;172.70;9.10;;;11.20;99.90;;;;;;4989319;28;20062;-76
2023/04/29 03:10:53;;;;;;;80.15;8.75;;;11.20;99.90;;;;;;4987144;28;20084;-76
2023/04/29 03:13:19;;;;;;;50.28;7.82;;;11.20;99.90;;;;;;4989090;28;20041;-75
2023/04/29 03:15:45;;;;;;;64.68;8.23;;;11.20;99.90;;;;;;5003232;28;20022;-76
2023/04/29 03:18:11;;;;;;;21.90;7.95;;;11.20;99.90;;;;;;4987814;28;20030;-75
2023/04/29 03:20:37;;;;;;;54.45;8.32;;;11.20;99.90;;;;;;4988872;28;20034;-76
2023/04/29 03:23:02;;;;;;;29.92;8.35;;;11.20;99.90;;;;;;4987306;28;20034;-76
2023/04/29 03:25:29;;;;;;;24.30;8.18;;;11.10;99.90;;;;;;4988614;28;20027;-76
2023/04/29 03:27:54;;;;;;;52.72;7.45;;;11.10;99.90;;;;;;4969565;28;20057;-75
2023/04/29 03:30:20;;;;;;;99.95;9.68;;;11.00;99.90;;;;;;4987664;28;20030;-76
2023/04/29 03:32:46;;;;;;;57.58;7.47;;;10.90;99.90;;;;;;4988431;28;20042;-76
2023/04/29 03:35:12;;;;;;;35.40;7.20;;;10.80;99.90;;;;;;4987432;28;20114;-76
2023/04/29 03:37:37;;;;;;;96.30;6.93;;;10.80;99.90;;;;;;4988149;28;20038;-76
2023/04/29 03:40:05;;;;;;;52.50;6.38;;;10.80;99.90;;;;;;4987535;28;20050;-76
2023/04/29 03:42:30;;;;;;;38.85;6.75;;;10.70;99.90;;;;;;4987221;28;20435;-76
2023/04/29 03:44:56;;;;;;;31.55;8.10;;;10.70;99.90;;;;;;4987968;28;20113;-76
2023/04/29 03:47:22;;;;;;;58.42;7.30;;;10.70;99.90;;;;;;4983035;28;20085;-76
2023/04/29 03:49:48;;;;;;;44.72;6.72;;;10.70;99.90;;;;;;4983444;28;20033;-76
2023/04/29 03:52:14;;;;;;;25.85;6.15;;;10.70;99.90;;;;;;4987968;28;20042;-75
2023/04/29 03:54:40;;;;;;;17.40;6.18;;;10.70;99.90;;;;;;4988555;28;20104;-76
2023/04/29 03:57:06;;;;;;;10.15;6.25;;;10.70;99.90;;;;;;4988092;28;20042;-76
2023/04/29 03:59:31;;;;;;;12.02;5.72;;;10.70;99.90;;;;;;4969414;28;20026;-76
2023/04/29 04:01:57;;;;;;;33.90;5.95;;;10.60;99.90;;;;;;4990557;28;20081;-75
2023/04/29 04:04:23;;;;;;;114.35;6.53;;;10.60;99.90;;;;;;4990824;28;20030;-77
2023/04/29 04:06:50;;;;;;;57.95;6.57;;;10.70;99.90;;;;;;4992855;28;20042;-76
2023/04/29 04:09:19;;;;;;;101.38;7.38;;;10.70;99.90;;;;;;4991290;28;20051;-76
2023/04/29 04:11:45;;;;;;;45.75;6.35;;;10.70;99.90;;;;;;4992589;28;20546;-76
2023/04/29 04:14:11;;;;;;;162.57;9.02;;;10.70;99.90;;;;;;4987735;28;20375;-76
2023/04/29 04:16:37;;;;;;;169.68;8.18;;;10.70;99.90;;;;;;4989466;28;20026;-76
2023/04/29 04:19:02;;;;;;;153.95;8.60;;;10.60;99.90;;;;;;4990808;28;20030;-76
2023/04/29 04:21:29;;;;;;;251.57;9.77;;;10.60;99.90;;;;;;4991797;28;20755;-76
2023/04/29 04:23:54;;;;;;;79.57;6.45;;;10.50;99.90;;;;;;4991448;28;20041;-76
2023/04/29 04:26:21;;;;;;;198.60;7.80;;;10.50;99.90;;;;;;4991537;28;20794;-76
2023/04/29 04:28:47;;;;;;;114.28;7.85;;;10.50;99.90;;;;;;4991971;28;20495;-76
2023/04/29 04:31:16;;;;;;;64.13;6.18;;;10.40;99.90;;;;;;4988415;28;20054;-76
2023/04/29 04:33:42;;;;;;;71.10;6.78;;;10.40;99.90;;;;;;4991198;28;20045;-77
2023/04/29 04:36:07;;;;;;;120.38;6.88;;;10.40;99.90;;;;;;4990826;28;20034;-77
2023/04/29 04:38:33;;;;;;;115.50;6.93;;;10.50;99.90;;;;;;4991264;28;20077;-77
2023/04/29 04:40:59;;;;;;;246.18;9.65;;;10.50;99.90;;;;;;4988512;28;20042;-77
2023/04/29 04:43:24;;;;;;;67.50;6.95;;;10.50;99.90;;;;;;4990357;28;20030;-77
2023/04/29 04:45:50;;;;;;;166.73;8.43;;;10.50;99.90;;;;;;4990443;28;20034;-77
2023/04/29 04:48:16;;;;;;;228.90;8.88;;;10.50;99.90;;;;;;4989450;28;20031;-76
2023/04/29 04:50:42;;;;;;;366.63;11.75;;;10.60;99.90;;;;;;4991567;28;20036;-76
2023/04/29 04:53:10;;;;;;;260.48;10.10;;;10.60;99.90;;;;;;4985535;28;20042;-77
2023/04/29 04:55:36;;;;;;;145.18;7.95;;;10.70;99.90;;;;;;4988402;28;20026;-76
2023/04/29 04:58:02;;;;;;;240.55;8.90;;;10.70;99.90;;;;;;4990300;28;20581;-77
2023/04/29 05:00:27;;;;;;;594.35;15.68;;;10.70;99.90;;;;;;4989569;28;20030;-77
2023/04/29 05:02:53;;;;;;;67.43;6.18;;;10.70;99.90;;;;;;4991164;28;20730;-77
2023/04/29 05:05:18;;;;;;;17.60;5.80;;;10.70;99.90;;;;;;4990381;28;20065;-75
2023/04/29 05:07:44;;;;;;;33.65;6.28;;;10.80;99.90;;;;;;4983306;28;20053;-75
2023/04/29 05:10:10;;;;;;;9.77;5.85;;;10.90;99.90;;;;;;4986966;28;20499;-76
2023/04/29 05:12:36;;;;;;;21.40;6.60;;;11.00;99.90;;;;;;4989749;28;20068;-76
2023/04/29 05:15:03;;;;;;;18.20;6.38;;;11.10;99.90;;;;;;4984685;28;20391;-75
2023/04/29 05:17:29;;;;;;;10.75;6.07;;;11.10;99.90;;;;;;4990874;28;20023;-75
2023/04/29 05:19:54;;;;;;;49.40;6.90;;;11.10;99.90;;;;;;4990687;28;20065;-76
2023/04/29 05:22:20;;;;;;;12.60;6.50;;;11.20;99.90;;;;;;4989173;28;20630;-77
2023/04/29 05:24:47;;;;;;;32.15;6.68;;;11.20;99.90;;;;;;4989732;28;20108;-75
2023/04/29 05:27:13;;;;;;;8.82;5.72;;;11.30;99.90;;;;;;4988180;28;20117;-75
2023/04/29 05:29:39;;;;;;;9.85;6.30;;;11.30;99.90;;;;;;4988631;28;20475;-76
2023/04/29 05:32:05;;;;;;;10.52;6.57;;;11.40;99.90;;;;;;4988059;28;20046;-76
2023/04/29 05:34:30;;;;;;;14.73;6.10;;;11.60;99.90;;;;;;4987814;28;20022;-76
2023/04/29 05:36:56;;;;;;;41.80;5.78;;;11.70;99.90;;;;;;4987593;28;20035;-76
2023/04/29 05:39:22;;;;;;;7.85;5.50;;;11.70;99.90;;;;;;4989868;28;20039;-76
2023/04/29 05:41:47;;;;;;;11.52;6.75;;;11.80;99.90;;;;;;4989423;28;20057;-77
2023/04/29 05:44:13;;;;;;;22.40;6.65;;;11.80;99.90;;;;;;4990323;28;20034;-76
2023/04/29 05:46:39;;;;;;;268.15;10.93;;;11.90;99.90;;;;;;4989535;28;20049;-76
2023/04/29 05:49:04;;;;;;;12.57;7.50;;;11.80;99.90;;;;;;4989336;28;20073;-75
2023/04/29 05:51:31;;;;;;;14.93;7.07;;;11.90;99.90;;;;;;4989506;28;20470;-76
2023/04/29 05:53:58;;;;;;;12.35;7.55;;;12.00;99.90;;;;;;4990600;28;20458;-74
2023/04/29 05:56:24;;;;;;;13.15;7.53;;;12.20;99.90;;;;;;4988045;28;20697;-76
2023/04/29 05:58:50;;;;;;;14.10;8.10;;;12.20;99.90;;;;;;4989790;28;20031;-75
2023/04/29 06:01:16;;;;;;;13.85;8.05;;;12.30;99.90;;;;;;4985379;28;20109;-74
2023/04/29 06:03:42;;;;;;;16.83;9.13;;;12.40;99.90;;;;;;4990619;28;20034;-73
2023/04/29 06:06:08;;;;;;;16.13;8.80;;;12.40;99.90;;;;;;4989108;28;20531;-74
2023/04/29 06:08:34;;;;;;;15.52;8.35;;;12.50;99.90;;;;;;4989325;28;20093;-74
2023/04/29 06:11:01;;;;;;;15.38;8.75;;;12.50;99.90;;;;;;4989042;28;20061;-73
2023/04/29 06:13:29;;;;;;;15.18;9.15;;;12.40;99.90;;;;;;4987150;28;20030;-74
2023/04/29 06:15:54;;;;;;;19.27;11.05;;;12.40;99.90;;;;;;4989107;28;20042;-74
2023/04/29 06:18:20;;;;;;;18.60;10.30;;;12.40;99.90;;;;;;4989293;28;20035;-74
2023/04/29 06:20:45;;;;;;;18.20;10.80;;;12.50;99.90;;;;;;4990189;28;20518;-74
2023/04/29 06:23:11;;;;;;;20.23;10.60;;;12.50;99.90;;;;;;4989283;28;20081;-75
2023/04/29 06:25:37;;;;;;;19.02;11.25;;;12.60;99.90;;;;;;4987944;28;20026;-74
2023/04/29 06:28:03;;;;;;;20.60;12.15;;;12.70;99.90;;;;;;4990205;28;20088;-73
2023/04/29 06:30:28;;;;;;;19.95;12.02;;;12.90;99.90;;;;;;4989128;28;20116;-74
2023/04/29 06:32:54;;;;;;;19.38;11.32;;;12.90;99.90;;;;;;4989270;28;20049;-73
2023/04/29 06:35:20;;;;;;;19.50;12.00;;;12.90;99.90;;;;;;4987860;28;20030;-73
2023/04/29 06:37:46;;;;;;;19.85;11.93;;;12.80;99.90;;;;;;4989027;28;20031;-74
2023/04/29 06:40:12;;;;;;;22.00;11.63;;;12.80;99.90;;;;;;4989385;28;20034;-75
2023/04/29 06:42:38;;;;;;;20.50;11.32;;;12.80;99.90;;;;;;4990114;28;20089;-74
2023/04/29 06:45:04;;;;;;;21.60;12.40;;;12.80;99.90;;;;;;4989127;28;20041;-74
2023/04/29 06:47:29;;;;;;;18.38;11.27;;;12.90;99.90;;;;;;4988469;28;20034;-73
2023/04/29 06:49:55;;;;;;;14.73;9.25;;;12.90;99.90;;;;;;4989738;28;20502;-73
2023/04/29 06:52:21;;;;;;;15.73;8.85;;;12.90;99.90;;;;;;4990867;28;20041;-72
2023/04/29 06:54:46;;;;;;;13.43;8.13;;;12.90;99.90;;;;;;4994730;28;20077;-74
2023/04/29 06:57:12;;;;;;;13.43;8.82;;;12.90;99.90;;;;;;4988977;28;20026;-73
2023/04/29 06:59:38;;;;;;;13.32;7.82;;;13.00;99.90;;;;;;4987520;28;20030;-72
2023/04/29 07:02:03;;;;;;;13.95;8.07;;;13.10;99.90;;;;;;4988578;28;20049;-74
2023/04/29 07:04:29;;;;;;;12.25;6.57;;;13.10;99.90;;;;;;4984157;28;20864;-74
2023/04/29 07:06:55;;;;;;;10.32;6.28;;;13.10;99.90;;;;;;5002682;28;21222;-74
2023/04/29 07:09:22;;;;;;;9.38;6.13;;;13.10;99.90;;;;;;4985707;28;20069;-73
2023/04/29 07:11:48;;;;;;;8.82;6.10;;;13.20;99.90;;;;;;4987030;28;20038;-73
2023/04/29 07:14:14;;;;;;;10.93;6.50;;;13.20;99.90;;;;;;4988057;28;20344;-74
2023/04/29 07:16:39;;;;;;;11.75;7.25;;;13.40;99.90;;;;;;4988743;28;20439;-73
2023/04/29 07:19:05;;;;;;;15.10;6.95;;;13.50;99.90;;;;;;4989294;28;20083;-73
2023/04/29 07:21:31;;;;;;;15.15;7.38;;;13.60;99.90;;;;;;4987539;28;20034;-75
2023/04/29 07:23:59;;;;;;;10.13;7.10;;;13.60;99.90;;;;;;4975792;28;20041;-75
2023/04/29 07:26:25;;;;;;;10.30;5.97;;;13.60;99.90;;;;;;4987418;28;20041;-73
2023/04/29 07:28:51;;;;;;;9.93;5.95;;;13.50;99.90;;;;;;4986373;28;20068;-74
2023/04/29 07:31:16;;;;;;;8.77;6.10;;;13.50;99.90;;;;;;4987922;28;20027;-74
2023/04/29 07:33:44;;;;;;;7.80;5.65;;;13.30;99.90;;;;;;4984271;28;20528;-72
2023/04/29 07:36:10;;;;;;;9.20;6.63;;;13.30;99.90;;;;;;4988831;28;20500;-76
2023/04/29 07:38:35;;;;;;;12.75;6.80;;;13.30;99.90;;;;;;4985101;28;20069;-76
2023/04/29 07:41:03;;;;;;;9.13;6.13;;;13.30;99.90;;;;;;4988901;28;20438;-75
2023/04/29 07:43:29;;;;;;;10.68;5.68;;;13.40;99.90;;;;;;4991550;28;20110;-76
2023/04/29 07:45:55;;;;;;;10.77;6.47;;;13.30;99.90;;;;;;4991057;28;20474;-75
2023/04/29 07:48:20;;;;;;;11.90;7.05;;;13.30;99.90;;;;;;4988364;28;20037;-76
2023/04/29 07:50:46;;;;;;;10.65;6.68;;;13.10;99.90;;;;;;4971462;28;20026;-75
2023/04/29 07:53:12;;;;;;;11.43;7.22;;;12.90;99.90;;;;;;4988081;28;20034;-77
2023/04/29 07:55:38;;;;;;;13.85;7.38;;;12.80;99.90;;;;;;4989133;28;20073;-75
2023/04/29 07:58:03;;;;;;;15.90;7.93;;;12.70;99.90;;;;;;4989118;28;20025;-74
2023/04/29 08:00:29;;;;;;;13.30;7.72;;;12.80;99.90;;;;;;4992130;28;20034;-75
2023/04/29 08:02:56;;;;;;;13.93;8.25;;;12.90;99.90;;;;;;5008445;28;20537;-74
2023/04/29 08:05:22;;;;;;;17.10;7.47;;;13.00;99.90;;;;;;4989947;28;20076;-75
2023/04/29 08:07:48;;;;;;;12.50;7.90;;;12.90;99.90;;;;;;5008230;28;20099;-74
2023/04/29 08:10:15;;;;;;;12.10;7.28;;;13.00;99.90;;;;;;4988751;28;20050;-77
2023/04/29 08:12:41;;;;;;;8.98;6.35;;;13.10;99.90;;;;;;4988380;28;20038;-74
2023/04/29 08:15:07;;;;;;;9.38;6.03;;;13.10;99.90;;;;;;4971260;28;20053;-74
2023/04/29 08:17:32;;;;;;;15.23;7.28;;;12.90;99.90;;;;;;4992180;28;20022;-75
2023/04/29 08:19:58;;;;;;;10.70;6.38;;;12.90;99.90;;;;;;5008116;28;20037;-74
2023/04/29 08:22:24;;;;;;;10.30;6.10;;;12.90;99.90;;;;;;5007401;28;20248;-75
2023/04/29 08:24:49;;;;;;;12.35;6.60;;;12.90;99.90;;;;;;5008331;28;20105;-74
2023/04/29 08:27:15;;;;;;;8.57;5.70;;;12.90;99.90;;;;;;4990574;28;20116;-76
2023/04/29 08:29:41;;;;;;;9.90;6.13;;;12.90;99.90;;;;;;4988291;28;20113;-75
2023/04/29 08:32:07;;;;;;;9.80;6.68;;;12.90;99.90;;;;;;4988726;28;20069;-75
2023/04/29 08:34:35;;;;;;;10.20;5.53;;;12.90;99.90;;;;;;4974728;28;20109;-76
2023/04/29 08:37:01;;;;;;;9.50;6.07;;;13.10;99.90;;;;;;4985904;28;20030;-77
2023/04/29 08:39:30;;;;;;;11.90;6.57;;;13.10;99.90;;;;;;4984848;28;20037;-74
2023/04/29 08:41:59;;;;;;;10.30;6.15;;;13.20;99.90;;;;;;4987299;28;20045;-74
2023/04/29 08:44:29;;;;;;;10.43;5.53;;;13.50;99.90;;;;;;4968446;28;20038;-76
2023/04/29 08:46:55;;;;;;;16.55;6.10;;;13.60;99.90;;;;;;4987590;28;20034;-73
2023/04/29 08:49:21;;;;;;;9.55;5.32;;;13.80;99.90;;;;;;4987239;28;20046;-75
2023/04/29 08:51:53;;;;;;;9.07;6.13;;;13.80;99.90;;;;;;4991294;28;20157;-74
2023/04/29 08:54:18;;;;;;;7.93;5.18;;;13.70;99.90;;;;;;4989584;28;20452;-74
2023/04/29 08:56:45;;;;;;;6.10;4.47;;;13.70;99.90;;;;;;4991434;28;20084;-76
2023/04/29 08:59:14;;;;;;;13.10;4.95;;;13.60;99.90;;;;;;4989946;28;20041;-75
2023/04/29 09:01:42;;;;;;;8.05;5.38;;;13.60;99.90;;;;;;4988591;28;20188;-77
2023/04/29 09:04:14;;;;;;;7.28;4.97;;;13.60;99.90;;;;;;4990855;28;20034;-75
2023/04/29 09:06:40;;;;;;;8.02;5.35;;;13.50;99.90;;;;;;4990816;28;20034;-75
2023/04/29 09:09:06;;;;;;;8.13;4.88;;;13.50;99.90;;;;;;4999553;28;20061;-75
2023/04/29 09:11:32;;;;;;;7.20;4.63;;;13.50;99.90;;;;;;4990474;28;20041;-76
2023/04/29 09:14:03;;;;;;;8.45;4.97;;;13.60;99.90;;;;;;4991581;28;20379;-76
2023/04/29 09:16:30;;;;;;;9.43;5.45;;;13.80;99.90;;;;;;4976041;28;20065;-77
2023/04/29 09:18:56;;;;;;;7.53;5.38;;;13.80;99.90;;;;;;4991320;28;20096;-75
2023/04/29 09:21:26;;;;;;;11.18;5.15;;;13.80;99.90;;;;;;4990850;28;20073;-75
2023/04/29 09:23:59;;;;;;;7.27;4.43;;;14.10;99.90;;;;;;4973659;28;20041;-75
2023/04/29 09:26:26;;;;;;;7.65;4.55;;;14.10;99.90;;;;;;5002322;28;20022;-74
2023/04/29 09:29:14;;;;;;;8.20;4.70;;;14.30;99.90;;;;;;5000745;28;20521;-76
2023/04/29 09:31:40;;;;;;;5.40;4.00;;;14.50;99.90;;;;;;4990858;28;20034;-77
2023/04/29 09:34:07;;;;;;;8.25;4.15;;;14.40;99.90;;;;;;4991363;28;20233;-77
2023/04/29 09:36:44;;;;;;;6.00;4.30;;;14.30;99.90;;;;;;4990457;28;20026;-76
2023/04/29 09:39:16;;;;;;;7.85;4.07;;;14.20;99.90;;;;;;4991426;28;20100;-75
2023/04/29 09:41:54;;;;;;;8.30;4.00;;;14.10;99.90;;;;;;4973270;28;20034;-75
2023/04/29 09:44:24;;;;;;;7.00;3.70;;;14.10;99.90;;;;;;4991840;28;20117;-77
2023/04/29 09:46:54;;;;;;;;;;;14.00;99.90;;;;;;4984037;28;20030;-75
2023/04/29 09:49:24;;;;;;;7.22;4.20;;;14.10;99.90;;;;;;4988727;28;19906;-76
2023/04/29 09:51:55;;;;;;;4.70;3.53;;;14.30;99.90;;;;;;4970113;28;20061;-76
2023/04/29 09:54:27;;;;;;;7.28;3.22;;;14.20;99.90;;;;;;4987057;28;20044;-74
2023/04/29 09:56:54;;;;;;;5.50;3.72;;;14.20;99.90;;;;;;4989055;28;20053;-74
2023/04/29 09:59:21;;;;;;;7.68;4.13;;;14.30;99.90;;;;;;4969655;28;20953;-81
2023/04/29 10:01:57;;;;;;;7.38;4.65;;;14.30;99.90;;;;;;4983098;28;20034;-75
2023/04/29 10:04:25;;;;;;;6.25;4.07;;;14.10;99.90;;;;;;4988974;28;20058;-73
2023/04/29 10:06:52;;;;;;;5.55;3.55;;;14.20;99.90;;;;;;4988542;28;20387;-76
2023/04/29 10:09:20;;;;;;;6.07;3.78;;;14.20;99.90;;;;;;4985674;28;20050;-77
2023/04/29 10:11:48;;;;;;;9.40;4.18;;;14.10;99.90;;;;;;4986808;28;20918;-74
2023/04/29 10:14:24;;;;;;;5.80;3.45;;;14.20;99.90;;;;;;4966709;28;20105;-75
2023/04/29 10:17:08;;;;;;;6.10;3.58;;;14.20;99.90;;;;;;4986823;28;20485;-75
2023/04/29 10:19:46;;;;;;;4.28;3.08;;;14.20;99.90;;;;;;4999687;28;20026;-74
2023/04/29 10:22:21;;;;;;;5.40;3.40;;;14.30;99.90;;;;;;4987577;28;20034;-75
2023/04/29 10:24:48;;;;;;;5.38;3.70;;;14.40;99.90;;;;;;4983905;28;20058;-74
2023/04/29 10:27:14;;;;;;;5.50;3.90;;;14.40;99.90;;;;;;4984987;28;20026;-74
2023/04/29 10:29:43;;;;;;;7.70;4.15;;;14.50;99.90;;;;;;4982297;28;20026;-72
2023/04/29 10:32:11;;;;;;;7.22;4.00;;;14.50;99.90;;;;;;4981227;28;20096;-73
2023/04/29 10:34:39;;;;;;;5.82;3.47;;;14.30;99.90;;;;;;4997089;28;20034;-74
2023/04/29 10:37:10;;;;;;;6.40;3.25;;;14.30;99.90;;;;;;4989411;28;20108;-73
2023/04/29 10:39:45;;;;;;;4.75;3.25;;;14.30;99.90;;;;;;4988467;28;20035;-75
2023/04/29 10:42:43;;;;;;;5.57;3.67;;;14.20;99.90;;;;;;4987552;28;20042;-74
2023/04/29 10:45:27;;;;;;;5.85;3.28;;;14.10;99.90;;;;;;4969706;28;20054;-74
2023/04/29 10:48:01;;;;;;;6.38;3.17;;;14.10;99.90;;;;;;4990953;28;20034;-74
2023/04/29 10:50:36;;;;;;;4.82;2.92;;;14.30;99.90;;;;;;4983431;28;20037;-75
2023/04/29 10:53:03;;;;;;;7.03;3.45;;;14.40;99.90;;;;;;4970369;28;20045;-74
2023/04/29 10:55:30;;;;;;;7.78;3.15;;;14.60;99.90;;;;;;4953900;28;20519;-75
2023/04/29 10:57:56;;;;;;;7.30;3.15;;;14.40;99.90;;;;;;4986617;28;20495;-74
2023/04/29 11:00:30;;;;;;;4.95;3.60;;;14.10;99.90;;;;;;4988203;28;20041;-75
2023/04/29 11:02:58;;;;;;;5.97;3.40;;;14.00;99.90;;;;;;4987986;28;20194;-73
2023/04/29 11:05:31;;;;;;;5.60;3.90;;;14.00;99.90;;;;;;4986697;28;20034;-76
2023/04/29 11:08:12;;;;;;;10.02;4.03;;;13.90;99.90;;;;;;4985626;28;20184;-74
2023/04/29 11:10:44;;;;;;;5.60;3.92;;;13.80;99.90;;;;;;4987869;28;20034;-73
2023/04/29 11:13:30;;;;;;;7.18;4.00;;;13.70;99.90;;;;;;4984711;28;20500;-74
2023/04/29 11:16:06;;;;;;;8.25;3.72;;;13.80;99.90;;;;;;4985802;28;20041;-74
2023/04/29 11:18:35;;;;;;;7.10;4.20;;;13.90;99.90;;;;;;4986075;28;20039;-72
2023/04/29 11:21:07;;;;;;;5.45;3.70;;;14.00;99.90;;;;;;4982810;28;20073;-73
2023/04/29 11:23:37;;;;;;;6.25;3.90;;;14.00;99.90;;;;;;4986115;28;20038;-73
2023/04/29 11:26:03;;;;;;;6.28;3.60;;;13.90;99.90;;;;;;4987887;28;20110;-72
2023/04/29 11:28:31;;;;;;;6.45;3.88;;;14.00;99.90;;;;;;4969056;28;20034;-73
2023/04/29 11:30:57;;;;;;;6.72;3.85;;;14.00;99.90;;;;;;4977923;28;20044;-72
2023/04/29 11:33:26;;;;;;;8.32;3.97;;;14.20;99.90;;;;;;4987410;28;20094;-76
2023/04/29 11:35:51;;;;;;;6.32;3.28;;;14.40;99.90;;;;;;4967716;28;20552;-76
2023/04/29 11:38:17;;;;;;;5.40;3.17;;;14.60;99.90;;;;;;4988775;28;20117;-73
2023/04/29 11:40:49;;;;;;;4.53;3.17;;;14.60;99.90;;;;;;4960677;28;20651;-73
2023/04/29 11:43:18;;;;;;;4.72;3.50;;;14.60;99.90;;;;;;4986876;28;20121;-72
2023/04/29 11:45:45;;;;;;;5.00;3.35;;;14.70;99.90;;;;;;4986669;28;20051;-73
2023/04/29 11:48:18;;;;;;;6.05;4.10;;;14.70;99.90;;;;;;4988165;28;20113;-73
2023/04/29 11:50:49;;;;;;;6.35;3.65;;;14.80;99.90;;;;;;4982871;28;20475;-75
2023/04/29 11:53:15;;;;;;;7.65;3.55;;;14.70;99.90;;;;;;4987025;28;20038;-74
2023/04/29 11:55:45;;;;;;;8.88;4.68;;;14.70;99.90;;;;;;4983543;28;20033;-73
2023/04/29 11:58:11;;;;;;;9.50;4.38;;;14.90;99.90;;;;;;4988757;28;20042;-73
2023/04/29 12:00:37;;;;;;;5.20;3.72;;;14.90;99.90;;;;;;4986392;28;20037;-73
2023/04/29 12:03:16;;;;;;;5.53;3.50;;;15.10;99.90;;;;;;4988077;28;20038;-73
2023/04/29 12:05:51;;;;;;;5.07;3.58;;;15.20;99.90;;;;;;4983219;28;20034;-74
2023/04/29 12:08:27;;;;;;;4.72;3.47;;;15.40;99.90;;;;;;4988005;28;20058;-73
2023/04/29 12:10:57;;;;;;;3.70;2.47;;;15.40;99.90;;;;;;4984565;28;20031;-72
2023/04/29 12:13:26;;;;;;;5.22;2.10;;;15.30;99.90;;;;;;4987201;28;20030;-72
2023/04/29 12:15:52;;;;;;;4.30;2.92;;;15.40;99.90;;;;;;4985786;28;20038;-74
2023/04/29 12:18:21;;;;;;;5.18;3.22;;;15.40;99.90;;;;;;4985130;28;20089;-73
2023/04/29 12:20:47;;;;;;;4.75;3.00;;;15.50;99.90;;;;;;4985222;28;20066;-76
2023/04/29 12:23:21;;;;;;;5.05;2.80;;;15.60;99.90;;;;;;4986713;28;20042;-76
2023/04/29 12:25:52;;;;;;;3.65;2.60;;;15.70;99.90;;;;;;4998939;28;20059;-74
2023/04/29 12:28:18;;;;;;;;;;;15.80;99.90;;;;;;4990772;28;20027;-74
2023/04/29 12:30:49;;;;;;;3.72;2.65;;;15.80;99.90;;;;;;4983027;28;19921;-74
2023/04/29 12:33:22;;;;;;;3.45;2.72;;;15.80;99.90;;;;;;4990630;28;20467;-73
2023/04/29 12:35:53;;;;;;;7.03;2.97;;;15.90;99.90;;;;;;4987849;28;20027;-74
2023/04/29 12:38:28;;;;;;;;;;;16.10;99.90;;;;;;4988381;28;20042;-74
2023/04/29 12:40:59;;;;;;;5.97;3.00;;;16.20;99.90;;;;;;4988341;28;19913;-72